Richland Springs, Texas
Current Conditions -  °F | °C
As of 11:55 PM on Tuesday 21 Oct 2014 (Local Time) from KBBD Reporting Station
Clear Clear  
Wind Chill: 64°   Ceiling: Unl
Heat Index: 64°   Visibility: 10mi
Dew Point: 50°   Wind: 5mph
Humidity: 59%   Direction: 120°ESE
Pressure: 30.08"   Gusts: NA
Location:  31.27°N, 98.95°W
Report Text: KBBD 220455Z AUTO 12004KT 10SM CLR 18/10 A3008 RMK
Loading
Personal Weather Stations






























Interactive Weather Map New forecast layout! Learn more

10-Day Weather Forecast

Advertisements
Track Severe Weather on mobile